Ralls, Texas
Current Conditions -  °F | °C
As of 5:53 PM on Sunday 23 Nov 2014 (Local Time) from KLBB Reporting Station
Broken Clouds Broken Clouds  
Wind Chill: 36°   Ceiling: 20000
Heat Index: 43°   Visibility: 10mi
Dew Point: 28°   Wind: 15mph
Humidity: 56%   Direction: 350°N
Pressure: 29.83"   Gusts: 28mph
Location:  33.67°N, 101.39°W
Report Text: KLBB 232353Z 35013G24KT 10SM SCT050 SCT085 BKN200 06/M02 A2983 RMK AO2 PK WND 35028/2307 SLP086 T00611022 10194 20061 51063
Loading
Personal Weather Stations






























Interactive Weather Map New forecast layout! Learn more

10-Day Weather Forecast

Advertisements
Track Severe Weather on mobile